createdAt,value
2019-01-25T00:02:23.265Z,92.70
2019-01-25T00:04:51.647Z,92.60
2019-01-25T00:07:20.053Z,92.60
2019-01-25T00:09:48.430Z,92.60
2019-01-25T00:12:16.829Z,92.40
2019-01-25T00:14:45.287Z,92.40
2019-01-25T00:17:14.076Z,92.50
2019-01-25T00:19:42.936Z,92.50
2019-01-25T00:22:11.335Z,92.50
2019-01-25T00:24:39.712Z,92.40
2019-01-25T00:27:08.503Z,92.70
2019-01-25T00:29:36.997Z,92.60
2019-01-25T00:32:05.380Z,92.60
2019-01-25T00:34:34.116Z,92.50
2019-01-25T00:37:02.493Z,92.50
2019-01-25T00:39:30.940Z,92.40
2019-01-25T00:41:59.332Z,92.60
2019-01-25T00:44:28.067Z,92.80
2019-01-25T00:46:56.852Z,92.90
2019-01-25T00:49:25.251Z,93.00
2019-01-25T00:51:53.902Z,93.00
2019-01-25T00:54:22.709Z,93.00
2019-01-25T00:56:51.087Z,93.00
2019-01-25T00:59:19.464Z,92.90
2019-01-25T01:01:47.879Z,93.00
2019-01-25T01:04:16.637Z,93.10
2019-01-25T01:06:45.049Z,93.10
2019-01-25T01:09:13.423Z,93.50
2019-01-25T01:11:41.868Z,93.20
2019-01-25T01:14:10.244Z,93.20
2019-01-25T01:16:38.640Z,93.00
2019-01-25T01:19:07.025Z,93.40
2019-01-25T01:21:35.424Z,93.40
2019-01-25T01:24:03.800Z,93.30
2019-01-25T01:26:32.579Z,93.40
2019-01-25T01:29:00.962Z,93.70
2019-01-25T01:31:29.343Z,93.40
2019-01-25T01:33:57.765Z,93.60
2019-01-25T01:36:26.127Z,93.60
2019-01-25T01:38:54.523Z,93.40
2019-01-25T01:41:22.921Z,93.60
2019-01-25T01:43:51.331Z,93.90
2019-01-25T01:46:19.708Z,93.80
2019-01-25T01:48:48.125Z,93.90
2019-01-25T01:51:16.832Z,93.90
2019-01-25T01:53:45.620Z,93.70
2019-01-25T01:56:13.996Z,93.80
2019-01-25T01:58:42.405Z,93.80
2019-01-25T02:01:10.783Z,94.10
2019-01-25T02:03:39.160Z,94.00
2019-01-25T02:06:07.559Z,94.10
2019-01-25T02:08:35.935Z,94.20
2019-01-25T02:11:04.675Z,94.30
2019-01-25T02:13:33.059Z,94.30
2019-01-25T02:16:01.467Z,94.40
2019-01-25T02:18:29.836Z,94.20
2019-01-25T02:20:58.328Z,94.00
2019-01-25T02:23:26.793Z,93.50
2019-01-25T02:25:55.120Z,93.50
2019-01-25T02:28:23.804Z,93.50
2019-01-25T02:30:52.183Z,93.40
2019-01-25T02:33:20.582Z,93.20
2019-01-25T02:35:48.967Z,93.30
2019-01-25T02:38:17.378Z,93.50
2019-01-25T02:40:45.753Z,93.60
2019-01-25T02:43:14.516Z,93.50
2019-01-25T02:45:42.897Z,93.70
2019-01-25T02:48:11.291Z,93.70
2019-01-25T02:50:39.898Z,93.60
2019-01-25T02:53:08.414Z,93.70
2019-01-25T02:55:36.798Z,93.40
2019-01-25T02:58:05.443Z,93.20
2019-01-25T03:00:33.819Z,93.50
2019-01-25T03:03:02.195Z,93.30
2019-01-25T03:05:30.669Z,93.30
2019-01-25T03:07:59.016Z,93.30
2019-01-25T03:10:29.176Z,93.30
2019-01-25T03:12:58.024Z,93.40
2019-01-25T03:15:26.726Z,93.60
2019-01-25T03:17:55.487Z,93.40
2019-01-25T03:20:23.884Z,93.50
2019-01-25T03:22:52.264Z,93.60
2019-01-25T03:25:22.715Z,93.60
2019-01-25T03:27:51.264Z,93.70
2019-01-25T03:30:24.036Z,94.20
2019-01-25T03:32:52.437Z,94.00
2019-01-25T03:35:22.653Z,93.80
2019-01-25T03:37:51.052Z,93.60
2019-01-25T03:40:26.509Z,93.50
2019-01-25T03:42:55.189Z,93.60
2019-01-25T03:45:23.906Z,93.60
2019-01-25T03:47:52.357Z,93.40
2019-01-25T03:50:26.209Z,93.30
2019-01-25T03:52:54.636Z,93.20
2019-01-25T03:55:23.091Z,93.10
2019-01-25T03:57:51.466Z,93.00
2019-01-25T04:00:27.957Z,92.60
2019-01-25T04:02:56.345Z,92.50
2019-01-25T04:05:24.749Z,92.70
2019-01-25T04:07:53.132Z,92.60
2019-01-25T04:10:26.208Z,92.40
2019-01-25T04:12:54.588Z,92.20
2019-01-25T04:15:25.660Z,92.20
2019-01-25T04:17:54.040Z,92.20
2019-01-25T04:20:23.361Z,92.20
2019-01-25T04:22:51.773Z,92.20
2019-01-25T04:25:21.773Z,92.50
2019-01-25T04:27:50.624Z,92.70
2019-01-25T04:30:27.144Z,91.70
2019-01-25T04:32:55.545Z,91.80
2019-01-25T04:35:23.930Z,91.60
2019-01-25T04:37:52.607Z,91.90
2019-01-25T04:40:21.111Z,92.00
2019-01-25T04:42:49.497Z,92.20
2019-01-25T04:45:19.423Z,92.60
2019-01-25T04:47:47.801Z,92.90
2019-01-25T04:50:19.329Z,93.10
2019-01-25T04:52:47.900Z,93.10
2019-01-25T04:55:19.109Z,92.90
2019-01-25T04:57:47.614Z,92.80
2019-01-25T05:00:19.140Z,92.80
2019-01-25T05:02:59.056Z,92.40
2019-01-25T05:05:28.495Z,92.50
2019-01-25T05:08:11.514Z,91.80
2019-01-25T05:10:40.130Z,91.60
2019-01-25T05:13:08.507Z,91.50
2019-01-25T05:15:36.927Z,91.50
2019-01-25T05:18:05.572Z,91.40
2019-01-25T05:20:34.024Z,91.20
2019-01-25T05:23:03.655Z,91.00
2019-01-25T05:25:32.940Z,90.90
2019-01-25T05:28:10.120Z,91.10
2019-01-25T05:30:38.499Z,91.10
2019-01-25T05:33:07.000Z,91.20
2019-01-25T05:35:36.923Z,91.00
2019-01-25T05:38:05.397Z,91.00
2019-01-25T05:40:34.175Z,91.30
2019-01-25T05:43:02.576Z,91.10
2019-01-25T05:45:30.959Z,91.10
2019-01-25T05:47:59.358Z,90.90
2019-01-25T05:50:27.752Z,90.80
2019-01-25T05:52:56.128Z,90.70
2019-01-25T05:55:24.532Z,90.50
2019-01-25T05:58:01.116Z,90.40
2019-01-25T06:00:34.410Z,91.60
2019-01-25T06:03:10.223Z,91.40
2019-01-25T06:05:38.628Z,91.40
2019-01-25T06:08:13.815Z,91.70
2019-01-25T06:10:42.212Z,91.80
2019-01-25T06:13:10.591Z,91.80
2019-01-25T06:15:38.999Z,91.70
2019-01-25T06:18:07.651Z,91.60
2019-01-25T06:20:36.058Z,91.80
2019-01-25T06:23:04.447Z,92.10
2019-01-25T06:25:32.855Z,92.20
2019-01-25T06:28:01.530Z,92.00
2019-01-25T06:30:30.206Z,92.40
2019-01-25T06:32:58.649Z,93.00
2019-01-25T06:35:27.107Z,93.90
2019-01-25T06:37:55.853Z,93.60
2019-01-25T06:40:24.231Z,94.60
2019-01-25T06:42:52.643Z,94.30
2019-01-25T06:45:21.048Z,94.20
2019-01-25T06:47:49.460Z,94.40
2019-01-25T06:50:17.841Z,94.30
2019-01-25T06:52:46.256Z,94.30
2019-01-25T06:55:14.656Z,94.50
2019-01-25T06:57:44.681Z,94.10
2019-01-25T07:00:17.168Z,94.80
2019-01-25T07:02:45.904Z,95.10
2019-01-25T07:05:14.424Z,95.20
2019-01-25T07:07:44.104Z,94.90
2019-01-25T07:10:18.331Z,95.30
2019-01-25T07:12:47.078Z,94.80
2019-01-25T07:15:17.153Z,94.90
2019-01-25T07:17:45.528Z,94.90
2019-01-25T07:20:15.568Z,94.80
2019-01-25T07:22:44.306Z,94.90
2019-01-25T07:25:14.430Z,94.70
2019-01-25T07:27:43.100Z,94.60
2019-01-25T07:30:13.516Z,94.90
2019-01-25T07:32:41.997Z,94.90
2019-01-25T07:35:10.617Z,94.90
2019-01-25T07:37:39.168Z,94.90
2019-01-25T07:40:08.672Z,95.10
2019-01-25T07:42:37.245Z,95.30
2019-01-25T07:45:11.276Z,95.30
2019-01-25T07:47:39.966Z,95.40
2019-01-25T07:50:10.201Z,95.20
2019-01-25T07:52:38.889Z,95.50
2019-01-25T07:55:09.333Z,95.60
2019-01-25T07:57:37.863Z,95.40
2019-01-25T08:00:09.635Z,95.30
2019-01-25T08:02:38.097Z,95.30
2019-01-25T08:05:08.329Z,95.10
2019-01-25T08:07:36.706Z,95.50
2019-01-25T08:10:08.369Z,95.90
2019-01-25T08:12:36.849Z,96.00
2019-01-25T08:15:08.511Z,95.40
2019-01-25T08:17:36.901Z,95.10
2019-01-25T08:20:08.636Z,95.10
2019-01-25T08:22:37.045Z,94.70
2019-01-25T08:25:07.060Z,94.40
2019-01-25T08:27:35.471Z,94.30
2019-01-25T08:30:21.488Z,94.00
2019-01-25T08:32:49.910Z,93.40
2019-01-25T08:35:18.460Z,93.00
2019-01-25T08:37:47.250Z,92.40
2019-01-25T08:40:16.711Z,92.30
2019-01-25T08:42:45.306Z,91.90
2019-01-25T08:45:17.804Z,91.10
2019-01-25T08:47:46.664Z,90.40
2019-01-25T08:50:26.346Z,90.50
2019-01-25T08:52:54.736Z,89.20
2019-01-25T08:55:23.213Z,87.80
2019-01-25T08:57:51.897Z,87.30
2019-01-25T09:00:25.299Z,87.00
2019-01-25T09:02:53.679Z,87.00
2019-01-25T09:05:22.076Z,86.40
2019-01-25T09:07:50.459Z,86.70
2019-01-25T09:10:29.383Z,85.90
2019-01-25T09:12:57.760Z,79.70
2019-01-25T09:15:31.967Z,77.20
2019-01-25T09:18:00.348Z,70.70
2019-01-25T09:20:28.749Z,67.00
2019-01-25T09:22:57.132Z,65.50
2019-01-25T09:25:25.535Z,63.60
2019-01-25T09:27:53.911Z,63.10
2019-01-25T09:30:24.427Z,62.60
2019-01-25T09:32:53.480Z,59.80
2019-01-25T09:35:22.228Z,58.20
2019-01-25T09:37:50.756Z,56.60
2019-01-25T09:40:22.738Z,56.10
2019-01-25T09:45:14.048Z,56.10
2019-01-25T09:47:42.517Z,56.40
2019-01-25T09:50:16.393Z,55.20
2019-01-25T09:52:44.803Z,51.30
2019-01-25T09:55:15.624Z,45.70
2019-01-25T09:57:44.004Z,42.10
2019-01-25T10:00:15.779Z,38.00
2019-01-25T10:02:44.164Z,36.80
2019-01-25T10:05:12.570Z,35.00
2019-01-25T10:07:40.956Z,34.00
2019-01-25T10:10:10.092Z,34.30
2019-01-25T10:12:43.221Z,33.20
2019-01-25T10:15:14.684Z,33.40
2019-01-25T10:17:43.100Z,34.10
2019-01-25T10:20:12.055Z,36.60
2019-01-25T10:22:40.375Z,38.50
2019-01-25T10:25:10.516Z,40.30
2019-01-25T10:27:38.906Z,42.20
2019-01-25T10:30:11.443Z,45.10
2019-01-25T10:32:40.098Z,47.40
2019-01-25T10:35:10.324Z,50.40
2019-01-25T10:37:38.699Z,53.30
2019-01-25T10:40:13.372Z,54.70
2019-01-25T10:42:45.570Z,56.50
2019-01-25T10:45:18.368Z,57.50
2019-01-25T10:47:46.742Z,58.50
2019-01-25T10:50:15.247Z,59.40
2019-01-25T10:52:43.683Z,59.60
2019-01-25T10:55:12.371Z,60.80
2019-01-25T10:57:40.906Z,62.20
2019-01-25T11:00:17.379Z,64.60
2019-01-25T11:02:45.872Z,65.30
2019-01-25T11:05:17.674Z,65.10
2019-01-25T11:07:46.210Z,65.20
2019-01-25T11:10:15.140Z,63.50
2019-01-25T11:12:43.673Z,61.40
2019-01-25T11:15:15.513Z,60.50
2019-01-25T11:17:46.646Z,61.10
2019-01-25T11:20:17.371Z,60.50
2019-01-25T11:22:45.740Z,60.00
2019-01-25T11:25:17.331Z,59.60
2019-01-25T11:27:45.713Z,58.40
2019-01-25T11:30:16.279Z,58.00
2019-01-25T11:32:45.048Z,57.20
2019-01-25T11:35:13.439Z,56.70
2019-01-25T11:37:42.107Z,56.40
2019-01-25T11:40:16.464Z,56.00
2019-01-25T11:42:45.110Z,54.80
2019-01-25T11:45:13.509Z,54.00
2019-01-25T11:47:41.884Z,54.40
2019-01-25T11:50:15.687Z,55.30
2019-01-25T11:52:44.066Z,56.50
2019-01-25T11:55:13.568Z,58.20
2019-01-25T11:57:42.272Z,60.00
2019-01-25T12:00:25.390Z,61.10
2019-01-25T12:02:53.769Z,61.80
2019-01-25T12:05:23.691Z,63.50
2019-01-25T12:07:52.622Z,65.20
2019-01-25T12:10:29.460Z,66.00
2019-01-25T12:12:57.860Z,66.00
2019-01-25T12:15:26.228Z,66.60
2019-01-25T12:17:54.624Z,66.50
2019-01-25T12:20:30.879Z,67.50
2019-01-25T12:22:59.643Z,67.80
2019-01-25T12:25:28.042Z,68.70
2019-01-25T12:27:56.435Z,68.60
2019-01-25T12:30:27.317Z,67.30
2019-01-25T12:32:55.755Z,66.30
2019-01-25T12:35:25.182Z,66.20
2019-01-25T12:37:53.638Z,66.20
2019-01-25T12:40:22.024Z,65.70
2019-01-25T12:42:50.488Z,65.90
2019-01-25T12:45:21.132Z,65.00
2019-01-25T12:47:49.506Z,64.60
2019-01-25T12:50:21.028Z,65.50
2019-01-25T12:52:49.408Z,65.30
2019-01-25T12:55:17.784Z,64.40
2019-01-25T12:57:46.253Z,64.70
2019-01-25T13:00:17.624Z,65.80
2019-01-25T13:02:46.385Z,64.70
2019-01-25T13:05:18.243Z,64.30
2019-01-25T13:07:46.639Z,63.50
2019-01-25T13:10:17.957Z,62.00
2019-01-25T13:12:46.672Z,60.90
2019-01-25T13:15:15.040Z,60.70
2019-01-25T13:17:43.599Z,61.20
2019-01-25T13:20:19.700Z,61.60
2019-01-25T13:22:48.180Z,61.40
2019-01-25T13:25:16.788Z,61.10
2019-01-25T13:27:45.170Z,61.50
2019-01-25T13:30:16.257Z,61.80
2019-01-25T13:32:44.683Z,63.30
2019-01-25T13:35:13.101Z,64.00
2019-01-25T13:37:41.472Z,64.30
2019-01-25T13:40:13.131Z,65.40
2019-01-25T13:42:41.573Z,66.40
2019-01-25T13:45:12.511Z,67.10
2019-01-25T13:47:40.893Z,68.20
2019-01-25T13:50:11.947Z,68.40
2019-01-25T13:52:40.300Z,68.40
2019-01-25T13:55:10.735Z,69.30
2019-01-25T13:57:39.404Z,69.90
2019-01-25T14:00:25.800Z,70.40
2019-01-25T14:02:54.168Z,70.60
2019-01-25T14:05:22.564Z,70.80
2019-01-25T14:07:50.941Z,71.60
2019-01-25T14:10:25.231Z,72.00
2019-01-25T14:12:53.610Z,72.00
2019-01-25T14:15:21.981Z,71.70
2019-01-25T14:17:50.402Z,72.30
2019-01-25T14:20:29.664Z,72.80
2019-01-25T14:22:58.773Z,73.30
2019-01-25T14:25:27.418Z,73.70
2019-01-25T14:27:56.025Z,73.40
2019-01-25T14:30:36.892Z,74.70
2019-01-25T14:33:07.288Z,74.70
2019-01-25T14:35:36.219Z,75.60
2019-01-25T14:38:05.389Z,76.40
2019-01-25T14:40:33.749Z,76.00
2019-01-25T14:43:02.144Z,75.20
2019-01-25T14:45:30.618Z,76.00
2019-01-25T14:47:59.461Z,76.20
2019-01-25T14:50:30.349Z,75.20
2019-01-25T14:52:59.072Z,75.40
2019-01-25T14:55:27.644Z,75.50
2019-01-25T14:57:56.020Z,75.90
2019-01-25T15:00:24.684Z,76.30
2019-01-25T15:02:53.061Z,76.40
2019-01-25T15:05:21.460Z,77.60
2019-01-25T15:07:49.833Z,76.50
2019-01-25T15:10:21.249Z,76.10
2019-01-25T15:12:49.867Z,77.50
2019-01-25T15:15:18.336Z,76.90
2019-01-25T15:17:46.721Z,76.10
2019-01-25T15:20:20.392Z,77.90
2019-01-25T15:22:48.795Z,80.30
2019-01-25T15:25:17.171Z,80.60
2019-01-25T15:27:45.560Z,81.10
2019-01-25T15:30:19.279Z,82.20
2019-01-25T15:32:47.681Z,83.40
2019-01-25T15:35:17.702Z,83.60
2019-01-25T15:37:46.135Z,84.00
2019-01-25T15:40:16.611Z,84.10
2019-01-25T15:42:45.043Z,84.20
2019-01-25T15:45:15.657Z,84.80
2019-01-25T15:47:44.055Z,84.40
2019-01-25T15:50:21.057Z,84.80
2019-01-25T15:52:49.507Z,85.70
2019-01-25T15:55:18.163Z,86.20
2019-01-25T15:57:46.534Z,87.30
2019-01-25T16:00:20.651Z,87.00
2019-01-25T16:02:49.028Z,87.90
2019-01-25T16:05:18.675Z,88.40
2019-01-25T16:07:47.387Z,88.70
2019-01-25T16:10:17.531Z,89.80
2019-01-25T16:12:45.911Z,90.00
2019-01-25T16:15:16.901Z,90.10
2019-01-25T16:17:45.291Z,90.40
2019-01-25T16:21:08.826Z,90.00
2019-01-25T16:23:38.948Z,90.80
2019-01-25T16:26:19.173Z,90.60
2019-01-25T16:28:56.910Z,91.10
2019-01-25T16:31:26.441Z,91.80
2019-01-25T16:33:54.977Z,91.30
2019-01-25T16:36:23.676Z,91.30
2019-01-25T16:38:52.115Z,91.30
2019-01-25T16:41:20.669Z,91.40
2019-01-25T16:43:49.304Z,91.60
2019-01-25T16:49:54.871Z,91.70
2019-01-25T16:52:23.949Z,91.60
2019-01-25T16:54:55.258Z,91.90
2019-01-25T16:57:23.754Z,91.80
2019-01-25T16:59:57.531Z,91.60
2019-01-25T17:02:49.226Z,91.30
2019-01-25T17:05:24.659Z,91.80
2019-01-25T17:08:08.726Z,91.80
2019-01-25T17:13:35.941Z,91.50
2019-01-25T17:16:07.806Z,91.40
2019-01-25T17:22:23.437Z,91.40
2019-01-25T17:24:51.848Z,91.60
2019-01-25T17:27:20.253Z,91.40
2019-01-25T17:29:48.660Z,91.40
2019-01-25T17:32:17.026Z,91.30
2019-01-25T17:34:45.441Z,91.40
2019-01-25T17:37:14.246Z,91.40
2019-01-25T17:39:42.676Z,91.30
2019-01-25T17:42:11.111Z,91.20
2019-01-25T17:44:41.390Z,91.20
2019-01-25T17:47:09.544Z,91.20
2019-01-25T17:49:37.989Z,91.70
2019-01-25T17:52:06.411Z,91.30
2019-01-25T17:54:35.165Z,91.10
2019-01-25T17:57:03.793Z,91.10
2019-01-25T17:59:32.257Z,91.10
2019-01-25T18:02:00.694Z,91.10
2019-01-25T18:04:29.072Z,90.90
2019-01-25T18:06:57.927Z,90.20
2019-01-25T18:09:26.320Z,90.10
2019-01-25T18:11:54.873Z,89.20
2019-01-25T18:14:23.471Z,89.20
2019-01-25T18:16:51.869Z,88.30
2019-01-25T18:19:20.303Z,87.30
2019-01-25T18:21:48.774Z,90.20
2019-01-25T18:24:17.155Z,88.80
2019-01-25T18:26:45.871Z,87.00
2019-01-25T18:29:17.110Z,87.00
2019-01-25T18:31:46.472Z,86.80
2019-01-25T18:34:14.877Z,85.70
2019-01-25T18:36:43.533Z,85.50
2019-01-25T18:39:12.243Z,84.80
2019-01-25T18:41:41.032Z,85.50
2019-01-25T18:44:09.508Z,84.50
2019-01-25T18:46:38.300Z,84.20
2019-01-25T18:49:06.890Z,84.10
2019-01-25T18:51:35.281Z,85.30
2019-01-25T18:54:03.656Z,83.70
2019-01-25T18:56:32.067Z,83.90
2019-01-25T18:59:00.498Z,83.60
2019-01-25T19:01:28.892Z,83.80
2019-01-25T19:03:57.279Z,83.90
2019-01-25T19:06:25.739Z,83.80
2019-01-25T19:08:54.196Z,82.90
2019-01-25T19:11:22.608Z,84.30
2019-01-25T19:13:50.997Z,85.70
2019-01-25T19:16:19.448Z,85.60
2019-01-25T19:18:48.155Z,86.10
2019-01-25T19:21:16.609Z,86.80
2019-01-25T19:23:44.992Z,86.80
2019-01-25T19:26:13.386Z,86.20
2019-01-25T19:28:41.852Z,86.90
2019-01-25T19:31:10.268Z,85.40
2019-01-25T19:33:38.676Z,89.10
2019-01-25T19:36:07.043Z,90.20
2019-01-25T19:38:35.452Z,85.20
2019-01-25T19:41:03.904Z,84.90
2019-01-25T19:43:32.296Z,85.70
2019-01-25T19:46:00.687Z,84.40
2019-01-25T19:48:29.075Z,83.70
2019-01-25T19:50:57.472Z,84.00
2019-01-25T19:53:25.847Z,84.30
2019-01-25T19:55:54.240Z,85.10
2019-01-25T19:58:22.666Z,83.80
2019-01-25T20:00:51.331Z,84.30
2019-01-25T20:03:19.681Z,83.60
2019-01-25T20:05:48.101Z,83.70
2019-01-25T20:08:16.479Z,83.50
2019-01-25T20:10:44.858Z,83.40
2019-01-25T20:13:13.442Z,84.80
2019-01-25T20:15:42.234Z,85.60
2019-01-25T20:18:10.632Z,83.80
2019-01-25T20:20:40.344Z,82.60
2019-01-25T20:23:08.767Z,83.30
2019-01-25T20:25:37.134Z,83.90
2019-01-25T20:28:07.876Z,83.90
2019-01-25T20:30:36.327Z,84.10
2019-01-25T20:33:05.567Z,84.90
2019-01-25T20:35:36.182Z,84.40
2019-01-25T20:38:04.857Z,84.00
2019-01-25T20:40:33.237Z,84.70
2019-01-25T20:43:01.781Z,84.70
2019-01-25T20:45:42.961Z,84.30
2019-01-25T20:48:11.336Z,85.20
2019-01-25T20:50:39.904Z,85.80
2019-01-25T20:53:13.161Z,86.20
2019-01-25T20:55:41.988Z,85.50
2019-01-25T20:58:10.450Z,84.50
2019-01-25T21:00:40.157Z,84.50
2019-01-25T21:03:13.847Z,83.60
2019-01-25T21:05:42.253Z,84.10
2019-01-25T21:08:10.820Z,83.90
2019-01-25T21:10:39.222Z,84.60
2019-01-25T21:13:07.612Z,85.30
2019-01-25T21:15:36.006Z,86.30
2019-01-25T21:18:05.224Z,85.50
2019-01-25T21:20:39.195Z,85.50
2019-01-25T21:23:07.575Z,85.40
2019-01-25T21:25:36.051Z,85.10
2019-01-25T21:28:04.868Z,84.80
2019-01-25T21:30:34.977Z,84.00
2019-01-25T21:33:03.697Z,84.40
2019-01-25T21:35:32.464Z,85.40
2019-01-25T21:38:00.896Z,86.90
2019-01-25T21:40:31.095Z,88.40
2019-01-25T21:42:59.514Z,87.80
2019-01-25T21:45:29.928Z,87.70
2019-01-25T21:47:59.013Z,87.30
2019-01-25T21:50:41.895Z,87.60
2019-01-25T21:53:13.130Z,88.90
2019-01-25T21:55:44.545Z,88.70
2019-01-25T21:58:13.303Z,90.00
2019-01-25T22:00:48.374Z,90.10
2019-01-25T22:03:17.881Z,90.10
2019-01-25T22:05:46.272Z,89.70
2019-01-25T22:08:14.652Z,90.50
2019-01-25T22:10:43.993Z,90.60
2019-01-25T22:13:12.680Z,90.50
2019-01-25T22:15:41.440Z,90.50
2019-01-25T22:18:09.784Z,90.50
2019-01-25T22:20:38.183Z,91.10
2019-01-25T22:23:06.882Z,90.60
2019-01-25T22:25:35.520Z,90.40
2019-01-25T22:28:03.911Z,90.00
2019-01-25T22:30:32.289Z,90.80
2019-01-25T22:33:00.695Z,90.70
2019-01-25T22:35:29.108Z,90.20
2019-01-25T22:37:57.507Z,89.80
2019-01-25T22:40:27.924Z,90.20
2019-01-25T22:42:56.522Z,89.80
2019-01-25T22:45:26.740Z,90.00
2019-01-25T22:47:56.297Z,88.60
2019-01-25T22:50:26.547Z,88.20
2019-01-25T22:52:55.216Z,87.50
2019-01-25T22:55:24.433Z,87.50
2019-01-25T22:57:52.811Z,87.10
2019-01-25T23:00:56.426Z,87.30
2019-01-25T23:03:28.403Z,87.30
2019-01-25T23:06:03.145Z,86.70
2019-01-25T23:08:31.719Z,87.80
2019-01-25T23:11:00.159Z,87.40
2019-01-25T23:13:28.539Z,92.00
2019-01-25T23:15:56.957Z,85.20
2019-01-25T23:18:25.340Z,84.60
2019-01-25T23:20:53.770Z,82.80
2019-01-25T23:23:22.140Z,82.50
2019-01-25T23:25:50.895Z,80.60
2019-01-25T23:28:19.268Z,80.60
2019-01-25T23:30:47.676Z,81.20
2019-01-25T23:33:16.052Z,81.70
2019-01-25T23:35:44.449Z,80.70
2019-01-25T23:38:12.820Z,84.60
2019-01-25T23:40:41.201Z,85.10
2019-01-25T23:43:09.579Z,88.60
2019-01-25T23:45:37.971Z,90.30
2019-01-25T23:48:06.443Z,90.50
2019-01-25T23:50:34.924Z,90.70
2019-01-25T23:53:03.329Z,92.10
2019-01-25T23:55:31.707Z,92.80
2019-01-25T23:58:00.099Z,93.60
